Time;durP1;ratioP1;P1;durP2;ratioP2;P2;SDS_P1;SDS_P2;PMS_P1;PMS_P2;Temp;Humidity;BMP_temperature;BMP_pressure;BME280_temperature;BME280_humidity;BME280_pressure;Samples;Min_cycle;Max_cycle;Signal;HPM_P1;HPM_P2
2023/10/05 00:00:37;;;;;;;10.38;2.20;;;13.60;99.90;;;;;;5057737;28;20075;-77
2023/10/05 00:03:06;;;;;;;14.05;2.17;;;13.60;99.90;;;;;;5074481;28;20040;-77
2023/10/05 00:05:37;;;;;;;9.45;2.00;;;13.60;99.90;;;;;;5074255;28;20455;-77
2023/10/05 00:08:07;;;;;;;8.68;2.03;;;13.60;99.90;;;;;;5074368;28;20094;-77
2023/10/05 00:10:33;;;;;;;10.50;2.53;;;13.60;99.90;;;;;;5074342;28;20033;-77
2023/10/05 00:13:05;;;;;;;7.50;2.03;;;13.60;99.90;;;;;;5074605;28;20123;-77
2023/10/05 00:15:32;;;;;;;9.63;2.33;;;13.60;99.90;;;;;;5074224;28;20044;-77
2023/10/05 00:17:58;;;;;;;12.60;2.00;;;13.60;99.90;;;;;;5074026;28;20051;-77
2023/10/05 00:20:31;;;;;;;8.20;2.10;;;13.60;99.90;;;;;;5057471;28;20119;-77
2023/10/05 00:22:58;;;;;;;7.70;2.00;;;13.60;99.90;;;;;;5057459;28;20037;-77
2023/10/05 00:25:27;;;;;;;10.18;2.00;;;13.60;99.90;;;;;;5057202;28;20128;-77
2023/10/05 00:27:55;;;;;;;11.93;2.05;;;13.60;99.90;;;;;;5073955;28;20037;-77
2023/10/05 00:30:21;;;;;;;8.63;2.00;;;13.60;99.90;;;;;;5057468;28;20382;-77
2023/10/05 00:32:56;;;;;;;10.65;2.60;;;13.60;99.90;;;;;;5074151;28;20041;-77
2023/10/05 00:35:26;;;;;;;7.13;2.20;;;13.60;99.90;;;;;;5073840;28;20455;-77
2023/10/05 00:37:57;;;;;;;8.00;1.85;;;13.60;99.90;;;;;;5074168;28;20040;-77
2023/10/05 00:40:42;;;;;;;12.35;2.20;;;13.60;99.90;;;;;;5074068;28;20056;-77
2023/10/05 00:43:19;;;;;;;7.93;2.00;;;13.60;99.90;;;;;;5057362;28;20040;-77
2023/10/05 00:45:47;;;;;;;9.73;2.17;;;13.60;99.90;;;;;;5073590;28;20048;-77
2023/10/05 00:51:23;;;;;;;9.25;1.95;;;13.60;99.90;;;;;;5073572;28;20041;-77
2023/10/05 00:53:50;;;;;;;13.70;2.42;;;13.60;99.90;;;;;;5073714;28;20105;-78
2023/10/05 00:56:16;;;;;;;7.78;2.10;;;13.60;99.90;;;;;;5073474;28;20513;-78
2023/10/05 00:58:44;;;;;;;17.17;3.05;;;13.60;99.90;;;;;;5073624;28;20036;-78
2023/10/05 01:01:16;;;;;;;9.45;2.13;;;13.60;99.90;;;;;;5056630;28;20074;-78
2023/10/05 01:06:42;;;;;;;10.75;1.92;;;13.60;99.90;;;;;;5073252;28;20037;-78
2023/10/05 01:09:22;;;;;;;10.40;2.10;;;13.60;99.90;;;;;;5056508;28;20032;-78
2023/10/05 01:11:54;;;;;;;9.80;2.20;;;13.60;99.90;;;;;;5073162;28;20033;-78
2023/10/05 01:14:23;;;;;;;7.90;2.50;;;13.60;99.90;;;;;;5073105;28;20037;-78
2023/10/05 01:16:49;;;;;;;10.52;2.35;;;13.60;99.90;;;;;;5056259;28;20071;-78
2023/10/05 01:19:15;;;;;;;7.85;2.20;;;13.60;99.90;;;;;;5072956;28;20076;-77
2023/10/05 01:21:43;;;;;;;9.50;2.35;;;13.60;99.90;;;;;;5072886;28;20036;-77
2023/10/05 01:24:10;;;;;;;13.98;2.35;;;13.60;99.90;;;;;;5072724;28;20413;-77
2023/10/05 01:26:37;;;;;;;11.05;2.50;;;13.60;99.90;;;;;;5072774;28;20412;-77
2023/10/05 01:29:03;;;;;;;9.57;2.75;;;13.60;99.90;;;;;;5072784;28;20055;-77
2023/10/05 01:31:29;;;;;;;10.27;2.60;;;13.60;99.90;;;;;;5072756;28;20400;-77
2023/10/05 01:33:58;;;;;;;9.85;2.40;;;13.60;99.90;;;;;;5056042;28;20044;-77
2023/10/05 01:36:24;;;;;;;10.30;2.08;;;13.60;99.90;;;;;;5055993;28;20082;-77
2023/10/05 01:38:54;;;;;;;9.13;2.15;;;13.60;99.90;;;;;;5056257;28;20044;-77
2023/10/05 01:41:22;;;;;;;11.25;2.10;;;13.60;99.90;;;;;;5072612;28;20044;-77
2023/10/05 01:43:48;;;;;;;13.40;2.63;;;13.60;99.90;;;;;;5072559;28;20127;-77
2023/10/05 01:46:14;;;;;;;7.13;2.00;;;13.60;99.90;;;;;;5055842;28;20037;-77
2023/10/05 01:48:41;;;;;;;11.85;2.90;;;13.60;99.90;;;;;;5072422;28;20037;-77
2023/10/05 01:51:26;;;;;;;10.55;2.10;;;13.60;99.90;;;;;;5072610;28;20044;-77
2023/10/05 01:53:56;;;;;;;10.25;2.60;;;13.60;99.90;;;;;;5072284;28;20489;-77
2023/10/05 01:56:22;;;;;;;10.60;2.10;;;13.60;99.90;;;;;;5072230;28;20505;-77
2023/10/05 01:58:54;;;;;;;10.07;2.25;;;13.60;99.90;;;;;;5072228;28;20044;-77
2023/10/05 02:01:26;;;;;;;13.55;2.42;;;13.60;99.90;;;;;;5055616;28;20036;-77
2023/10/05 02:03:54;;;;;;;13.55;2.42;;;13.60;99.90;;;;;;5072085;28;20076;-77
2023/10/05 02:06:20;;;;;;;9.10;2.22;;;13.60;99.90;;;;;;5072135;28;20044;-77
2023/10/05 02:08:46;;;;;;;10.15;2.40;;;13.60;99.90;;;;;;5055693;28;20047;-77
2023/10/05 02:11:23;;;;;;;12.65;2.60;;;13.60;99.90;;;;;;5072385;28;20464;-77
2023/10/05 02:13:49;;;;;;;13.32;2.70;;;13.60;99.90;;;;;;5054863;28;20044;-77
2023/10/05 02:16:17;;;;;;;11.63;2.42;;;13.60;99.90;;;;;;5071862;28;20047;-77
2023/10/05 02:18:43;;;;;;;9.68;2.33;;;13.60;99.90;;;;;;5072264;28;20109;-77
2023/10/05 02:21:24;;;;;;;6.28;1.95;;;13.60;99.90;;;;;;5055494;28;20493;-77
2023/10/05 02:23:52;;;;;;;9.40;2.50;;;13.60;99.90;;;;;;5071854;28;20047;-77
2023/10/05 02:26:34;;;;;;;10.57;2.75;;;13.50;99.90;;;;;;5071877;28;20566;-77
2023/10/05 02:29:13;;;;;;;14.07;2.40;;;13.50;99.90;;;;;;5055225;28;20554;-77
2023/10/05 02:31:50;;;;;;;12.35;2.22;;;13.50;99.90;;;;;;5071899;28;20047;-77
2023/10/05 02:34:19;;;;;;;12.75;2.78;;;13.50;99.90;;;;;;5071809;28;20044;-77
2023/10/05 02:36:44;;;;;;;13.38;2.90;;;13.50;99.90;;;;;;5072044;28;20044;-77
2023/10/05 02:39:10;;;;;;;11.15;2.30;;;13.60;99.90;;;;;;5071966;28;20047;-77
2023/10/05 02:41:39;;;;;;;7.35;2.25;;;13.60;99.90;;;;;;5055021;28;20505;-77
2023/10/05 02:44:54;;;;;;;10.38;3.00;;;13.60;99.90;;;;;;5071769;28;20048;-77
2023/10/05 02:46:52;;;;;;;15.50;2.92;;;13.60;99.90;;;;;;5068115;28;20056;-77
2023/10/05 02:49:18;;;;;;;13.95;2.30;;;13.60;99.90;;;;;;5071675;28;20401;-77
2023/10/05 02:51:46;;;;;;;10.93;2.35;;;13.60;99.90;;;;;;5071724;28;20044;-77
2023/10/05 02:54:12;;;;;;;12.93;2.83;;;13.60;99.90;;;;;;5071674;28;20055;-77
2023/10/05 02:56:41;;;;;;;11.10;2.53;;;13.60;99.90;;;;;;5054936;28;20067;-76
2023/10/05 02:59:09;;;;;;;14.50;2.63;;;13.60;99.90;;;;;;5054954;28;20066;-76
2023/10/05 03:01:38;;;;;;;9.80;2.50;;;13.60;99.90;;;;;;5055111;28;20044;-76
2023/10/05 03:06:40;;;;;;;13.85;2.60;;;13.60;99.90;;;;;;5071633;28;20040;-76
2023/10/05 03:09:10;;;;;;;8.70;2.22;;;13.60;99.90;;;;;;5071502;28;20036;-77
2023/10/05 03:11:39;;;;;;;6.70;1.90;;;13.60;99.90;;;;;;5071476;28;20032;-77
2023/10/05 03:14:07;;;;;;;9.93;2.20;;;13.60;99.90;;;;;;5071637;28;20568;-77
2023/10/05 03:16:42;;;;;;;9.60;2.10;;;13.50;99.90;;;;;;5071246;28;20566;-77
2023/10/05 03:19:11;;;;;;;8.40;2.10;;;13.50;99.90;;;;;;5071391;28;20041;-78
2023/10/05 03:21:37;;;;;;;11.88;2.58;;;13.50;99.90;;;;;;5054680;28;20041;-78
2023/10/05 03:24:03;;;;;;;9.63;2.13;;;13.50;99.90;;;;;;5073025;28;20070;-78
2023/10/05 03:26:29;;;;;;;9.40;2.53;;;13.50;99.90;;;;;;5058485;28;20082;-78
2023/10/05 03:28:54;;;;;;;16.13;2.47;;;13.50;99.90;;;;;;5058694;28;20032;-78
2023/10/05 03:31:32;;;;;;;13.32;2.88;;;13.40;99.90;;;;;;5075056;28;20497;-78
2023/10/05 03:33:58;;;;;;;6.78;2.20;;;13.40;99.90;;;;;;5075727;28;20140;-78
2023/10/05 03:36:23;;;;;;;12.50;2.88;;;13.50;99.90;;;;;;5074970;28;20036;-78
2023/10/05 03:38:56;;;;;;;7.68;2.20;;;13.40;99.90;;;;;;5058285;28;20040;-78
2023/10/05 03:41:28;;;;;;;7.97;2.33;;;13.40;99.90;;;;;;5074953;28;20044;-78
2023/10/05 03:44:02;;;;;;;14.48;3.45;;;13.40;99.90;;;;;;5074651;28;20497;-78
2023/10/05 03:46:27;;;;;;;9.15;2.28;;;13.40;99.90;;;;;;5058416;28;20044;-78
2023/10/05 03:49:00;;;;;;;12.98;2.35;;;13.40;99.90;;;;;;5074731;28;20128;-78
2023/10/05 03:51:26;;;;;;;11.15;2.20;;;13.30;99.90;;;;;;5074756;28;20048;-78
2023/10/05 03:53:53;;;;;;;13.25;2.70;;;13.40;99.90;;;;;;5057894;28;20116;-78
2023/10/05 03:56:19;;;;;;;12.23;2.50;;;13.40;99.90;;;;;;5074647;28;20049;-78
2023/10/05 03:58:46;;;;;;;14.70;2.10;;;13.40;99.90;;;;;;5057837;28;20079;-78
2023/10/05 04:01:12;;;;;;;10.70;2.55;;;13.40;99.90;;;;;;5074478;28;20086;-78
2023/10/05 04:03:46;;;;;;;11.60;2.40;;;13.40;99.90;;;;;;5074309;28;20076;-78
2023/10/05 04:06:20;;;;;;;10.70;2.35;;;13.40;99.90;;;;;;5058026;28;20039;-78
2023/10/05 04:09:15;;;;;;;10.75;2.20;;;13.40;99.90;;;;;;5075035;28;20501;-78
2023/10/05 04:11:39;;;;;;;;;;;13.50;99.90;;;;;;5074694;28;20041;-78
2023/10/05 04:14:05;;;;;;;11.57;2.67;;;13.40;99.90;;;;;;5057790;28;19916;-78
2023/10/05 04:16:33;;;;;;;10.65;2.50;;;13.40;99.90;;;;;;5074118;28;20041;-78
2023/10/05 04:19:03;;;;;;;13.68;2.78;;;13.50;99.90;;;;;;5074227;28;20048;-78
2023/10/05 04:21:30;;;;;;;9.55;2.13;;;13.40;99.90;;;;;;5074205;28;20086;-78
2023/10/05 04:23:59;;;;;;;15.10;2.38;;;13.50;99.90;;;;;;5073921;28;20044;-78
2023/10/05 04:26:37;;;;;;;10.52;2.60;;;13.40;99.90;;;;;;5074049;28;20078;-78
2023/10/05 04:29:04;;;;;;;9.63;2.22;;;13.40;99.90;;;;;;5074294;28;20409;-78
2023/10/05 04:31:32;;;;;;;13.07;2.50;;;13.40;99.90;;;;;;5073937;28;20114;-78
2023/10/05 04:33:59;;;;;;;9.90;2.20;;;13.40;99.90;;;;;;5057444;28;20051;-78
2023/10/05 04:36:25;;;;;;;10.60;2.20;;;13.40;99.90;;;;;;5056784;28;20393;-78
2023/10/05 04:38:54;;;;;;;11.93;2.50;;;13.40;99.90;;;;;;5057124;28;20036;-78
2023/10/05 04:41:21;;;;;;;15.15;2.67;;;13.40;99.90;;;;;;5073710;28;20515;-78
2023/10/05 04:43:48;;;;;;;10.02;2.30;;;13.30;99.90;;;;;;5073775;28;20076;-78
2023/10/05 04:46:18;;;;;;;15.15;2.45;;;13.30;99.90;;;;;;5057254;28;20098;-78
2023/10/05 04:48:55;;;;;;;14.35;2.75;;;13.30;99.90;;;;;;5056962;28;20032;-78
2023/10/05 04:51:22;;;;;;;11.45;2.60;;;13.40;99.90;;;;;;5073891;28;20076;-78
2023/10/05 04:53:52;;;;;;;17.67;2.70;;;13.30;99.90;;;;;;5073541;28;20080;-78
2023/10/05 04:56:28;;;;;;;10.55;2.22;;;13.40;99.90;;;;;;5073445;28;20047;-78
2023/10/05 04:59:19;;;;;;;10.13;2.67;;;13.40;99.90;;;;;;5073453;28;20048;-78
2023/10/05 05:04:27;;;;;;;13.13;3.00;;;13.40;99.90;;;;;;5073283;28;20056;-78
2023/10/05 05:07:00;;;;;;;13.93;2.80;;;13.30;99.90;;;;;;5056657;28;20033;-78
2023/10/05 05:09:29;;;;;;;12.82;2.55;;;13.40;99.90;;;;;;5073786;28;20055;-78
2023/10/05 05:12:03;;;;;;;13.85;2.90;;;13.40;99.90;;;;;;5073231;28;20041;-78
2023/10/05 05:14:33;;;;;;;11.45;2.20;;;13.40;99.90;;;;;;5073072;28;20091;-77
2023/10/05 05:17:02;;;;;;;12.85;2.90;;;13.40;99.90;;;;;;5056645;28;20154;-77
2023/10/05 05:19:30;;;;;;;18.45;3.00;;;13.50;99.90;;;;;;5056269;28;20044;-77
2023/10/05 05:21:57;;;;;;;7.97;2.00;;;13.40;99.90;;;;;;5073168;28;20044;-77
2023/10/05 05:24:23;;;;;;;14.13;2.90;;;13.50;99.90;;;;;;5072728;28;20041;-77
2023/10/05 05:26:49;;;;;;;13.15;2.58;;;13.40;99.90;;;;;;5073363;28;20032;-77
2023/10/05 05:29:14;;;;;;;12.35;2.10;;;13.40;99.90;;;;;;5073906;28;20036;-77
2023/10/05 05:31:42;;;;;;;15.27;2.58;;;13.40;99.90;;;;;;5072712;28;20454;-77
2023/10/05 05:34:07;;;;;;;18.15;3.15;;;13.50;99.90;;;;;;5072600;28;20051;-77
2023/10/05 05:36:39;;;;;;;16.27;2.90;;;13.40;99.90;;;;;;5072654;28;20045;-76
2023/10/05 05:39:05;;;;;;;16.50;2.75;;;13.50;99.90;;;;;;5072659;28;20055;-77
2023/10/05 05:41:30;;;;;;;12.48;2.53;;;13.50;99.90;;;;;;5072564;28;20040;-77
2023/10/05 05:43:56;;;;;;;8.65;2.10;;;13.50;99.90;;;;;;5072388;28;20044;-77
2023/10/05 05:46:22;;;;;;;14.57;2.67;;;13.50;99.90;;;;;;5072131;28;20094;-77
2023/10/05 05:48:52;;;;;;;10.00;2.80;;;13.50;99.90;;;;;;5071930;28;20040;-77
2023/10/05 05:51:21;;;;;;;9.40;2.28;;;13.50;99.90;;;;;;5072967;28;20086;-77
2023/10/05 05:53:47;;;;;;;13.70;3.55;;;13.50;99.90;;;;;;5072571;28;20051;-77
2023/10/05 05:56:19;;;;;;;17.35;3.80;;;13.50;99.90;;;;;;5056006;28;20036;-77
2023/10/05 05:58:46;;;;;;;11.40;2.50;;;13.50;99.90;;;;;;5055756;28;20041;-77
2023/10/05 06:01:14;;;;;;;13.35;3.15;;;13.50;99.90;;;;;;5072513;28;20040;-77
2023/10/05 06:03:53;;;;;;;12.65;2.40;;;13.60;99.90;;;;;;5072061;28;20049;-77
2023/10/05 06:06:21;;;;;;;14.93;3.38;;;13.60;99.90;;;;;;5072254;28;20390;-77
2023/10/05 06:08:47;;;;;;;11.90;2.22;;;13.60;99.90;;;;;;5055684;28;20067;-77
2023/10/05 06:11:14;;;;;;;16.05;3.13;;;13.50;99.90;;;;;;5072351;28;20393;-77
2023/10/05 06:13:41;;;;;;;15.52;3.35;;;13.60;99.90;;;;;;5072011;28;20036;-77
2023/10/05 06:16:10;;;;;;;14.13;3.25;;;13.60;99.90;;;;;;5071982;28;20052;-77
2023/10/05 06:18:39;;;;;;;15.40;2.83;;;13.60;99.90;;;;;;5072041;28;20056;-76
2023/10/05 06:21:05;;;;;;;16.50;2.95;;;13.60;99.90;;;;;;5072278;28;20032;-76
2023/10/05 06:23:34;;;;;;;15.55;2.90;;;13.70;99.90;;;;;;5071892;28;20043;-77
2023/10/05 06:26:00;;;;;;;16.35;2.80;;;13.60;99.90;;;;;;5055442;28;20033;-77
2023/10/05 06:28:27;;;;;;;15.57;3.35;;;13.60;99.90;;;;;;5071895;28;20036;-77
2023/10/05 06:30:53;;;;;;;15.40;3.40;;;13.70;99.90;;;;;;5071902;28;20039;-77
2023/10/05 06:33:19;;;;;;;15.00;2.92;;;13.70;99.90;;;;;;5071873;28;20040;-77
2023/10/05 06:35:48;;;;;;;12.85;2.80;;;13.70;99.90;;;;;;5071784;28;20386;-77
2023/10/05 06:38:16;;;;;;;13.90;3.05;;;13.70;99.90;;;;;;5071766;28;20044;-77
2023/10/05 06:40:41;;;;;;;14.70;3.17;;;13.70;99.90;;;;;;5071815;28;20044;-77
2023/10/05 06:43:07;;;;;;;17.20;3.13;;;13.70;99.90;;;;;;5072015;28;20102;-77
2023/10/05 06:45:35;;;;;;;17.45;3.85;;;13.70;99.90;;;;;;5071774;28;20413;-77
2023/10/05 06:48:02;;;;;;;13.10;2.60;;;13.80;99.90;;;;;;5071843;28;20036;-77
2023/10/05 06:50:28;;;;;;;15.15;2.92;;;13.80;99.90;;;;;;5071777;28;20040;-77
2023/10/05 06:52:53;;;;;;;9.98;2.53;;;13.90;99.90;;;;;;5071718;28;20041;-77
2023/10/05 06:55:21;;;;;;;17.15;3.25;;;13.90;99.90;;;;;;5071570;28;20079;-77
2023/10/05 06:57:49;;;;;;;13.55;2.83;;;13.90;99.90;;;;;;5071890;28;20044;-77
2023/10/05 07:00:16;;;;;;;17.30;3.53;;;14.00;99.90;;;;;;5058926;28;20044;-77
2023/10/05 07:02:47;;;;;;;13.75;2.80;;;14.00;99.90;;;;;;5075711;28;20447;-77
2023/10/05 07:05:13;;;;;;;9.52;2.85;;;14.00;99.90;;;;;;5075503;28;20097;-77
2023/10/05 07:07:40;;;;;;;10.57;2.75;;;14.00;99.90;;;;;;5075567;28;20036;-77
2023/10/05 07:10:07;;;;;;;14.07;3.40;;;14.10;99.90;;;;;;5058801;28;20424;-77
2023/10/05 07:13:09;;;;;;;17.70;3.28;;;14.10;99.90;;;;;;5075919;28;20051;-78
2023/10/05 07:15:26;;;;;;;18.02;3.00;;;14.10;99.90;;;;;;5074358;28;20378;-78
2023/10/05 07:17:51;;;;;;;13.35;2.97;;;14.20;99.90;;;;;;5075186;28;20044;-77
2023/10/05 07:20:22;;;;;;;14.88;3.10;;;14.20;99.90;;;;;;5075291;28;20086;-77
2023/10/05 07:22:48;;;;;;;11.27;3.50;;;14.20;99.90;;;;;;5075607;28;20056;-78
2023/10/05 07:25:16;;;;;;;13.85;3.17;;;14.30;99.90;;;;;;5075135;28;20044;-77
2023/10/05 07:27:42;;;;;;;16.38;3.20;;;14.40;99.90;;;;;;5075247;28;20047;-78
2023/10/05 07:30:09;;;;;;;15.05;3.60;;;14.40;99.90;;;;;;5075319;28;20028;-77
2023/10/05 07:32:34;;;;;;;15.70;3.35;;;14.40;99.90;;;;;;5075040;28;20043;-77
2023/10/05 07:35:01;;;;;;;16.65;3.35;;;14.40;99.90;;;;;;5074845;28;20036;-77
2023/10/05 07:37:27;;;;;;;15.10;3.00;;;14.40;99.90;;;;;;5074898;28;20440;-76
2023/10/05 07:39:53;;;;;;;14.77;2.90;;;14.50;99.90;;;;;;5074846;28;20131;-76
2023/10/05 07:42:18;;;;;;;12.23;2.92;;;14.50;99.90;;;;;;5074781;28;20041;-76
2023/10/05 07:44:44;;;;;;;11.40;3.22;;;14.50;99.90;;;;;;5074757;28;20131;-76
2023/10/05 07:47:14;;;;;;;12.20;2.67;;;14.50;99.90;;;;;;5074940;28;20046;-76
2023/10/05 07:49:41;;;;;;;15.20;3.00;;;14.40;99.90;;;;;;5074712;28;20044;-76
2023/10/05 07:52:09;;;;;;;15.90;3.85;;;14.50;99.90;;;;;;5074532;28;20120;-76
2023/10/05 07:54:37;;;;;;;16.55;3.17;;;14.50;99.90;;;;;;5057849;28;20070;-76
2023/10/05 07:57:13;;;;;;;14.85;3.45;;;14.50;99.90;;;;;;5074547;28;20119;-76
2023/10/05 07:59:40;;;;;;;12.40;3.28;;;14.60;99.90;;;;;;5057927;28;20041;-76
2023/10/05 08:02:14;;;;;;;15.80;3.88;;;14.70;99.90;;;;;;5058680;28;20045;-76
2023/10/05 08:04:41;;;;;;;13.60;3.05;;;14.70;99.90;;;;;;5074417;28;20163;-76
2023/10/05 08:07:08;;;;;;;14.45;3.50;;;14.80;99.90;;;;;;5074452;28;20206;-76
2023/10/05 08:09:34;;;;;;;13.57;3.15;;;14.90;99.90;;;;;;5057147;28;20040;-76
2023/10/05 08:12:00;;;;;;;16.42;3.47;;;14.90;99.90;;;;;;5073901;28;20040;-76
2023/10/05 08:14:30;;;;;;;16.60;3.50;;;14.90;99.90;;;;;;5074447;28;20047;-71
2023/10/05 08:16:56;;;;;;;15.23;3.42;;;15.00;99.90;;;;;;5074135;28;20045;-72
2023/10/05 08:19:25;;;;;;;19.17;3.53;;;15.00;99.90;;;;;;5074166;28;20166;-71
2023/10/05 08:21:54;;;;;;;11.88;2.85;;;15.10;99.90;;;;;;5074164;28;20049;-72
2023/10/05 08:24:26;;;;;;;17.33;3.47;;;15.20;99.90;;;;;;5073914;28;20037;-71
2023/10/05 08:26:52;;;;;;;15.43;3.10;;;15.20;99.90;;;;;;5074324;28;20501;-71
2023/10/05 08:29:22;;;;;;;12.35;2.67;;;15.20;99.90;;;;;;5073966;28;20041;-71
2023/10/05 08:31:54;;;;;;;13.80;3.33;;;15.20;99.90;;;;;;5073924;28;20044;-71
2023/10/05 08:34:22;;;;;;;22.40;3.70;;;15.20;99.90;;;;;;5073909;28;20040;-71
2023/10/05 08:36:49;;;;;;;13.70;3.22;;;15.30;99.90;;;;;;5074134;28;20044;-71
2023/10/05 08:39:16;;;;;;;13.88;3.58;;;15.30;99.90;;;;;;5073828;28;20052;-71
2023/10/05 08:41:42;;;;;;;14.95;3.05;;;15.30;99.90;;;;;;5073780;28;20044;-71
2023/10/05 08:47:07;;;;;;;13.98;3.30;;;15.30;99.90;;;;;;5055990;28;20051;-71
2023/10/05 08:49:33;;;;;;;18.48;3.75;;;15.30;99.90;;;;;;5056001;28;20111;-72
2023/10/05 08:51:59;;;;;;;14.23;3.38;;;15.30;99.90;;;;;;5056147;28;20106;-72
2023/10/05 08:54:28;;;;;;;14.63;3.17;;;15.30;99.90;;;;;;5055930;28;20044;-72
2023/10/05 08:56:58;;;;;;;15.45;3.38;;;15.30;99.90;;;;;;5056118;28;20130;-71
2023/10/05 08:59:26;;;;;;;15.70;3.55;;;15.30;99.90;;;;;;5055900;28;20044;-72
2023/10/05 09:01:53;;;;;;;16.67;3.22;;;15.30;99.90;;;;;;5039474;28;20036;-72
2023/10/05 09:06:47;;;;;;;20.17;3.90;;;15.20;99.90;;;;;;5055697;28;20036;-72
2023/10/05 09:09:15;;;;;;;15.23;3.20;;;15.30;99.90;;;;;;5039002;28;20037;-72
2023/10/05 09:11:41;;;;;;;18.95;3.47;;;15.20;99.90;;;;;;5055807;28;20137;-71
2023/10/05 09:14:18;;;;;;;23.80;3.67;;;15.30;99.90;;;;;;5055795;28;20036;-71
2023/10/05 09:16:47;;;;;;;15.32;3.97;;;15.30;99.90;;;;;;5055589;28;20052;-71
2023/10/05 09:19:29;;;;;;;16.75;4.20;;;15.30;99.90;;;;;;5055415;28;20051;-71
2023/10/05 09:22:17;;;;;;;17.00;3.47;;;15.30;99.90;;;;;;5055536;28;20539;-72
2023/10/05 09:24:52;;;;;;;14.98;3.70;;;15.30;99.90;;;;;;5072276;28;20409;-71
2023/10/05 09:27:19;;;;;;;15.57;3.85;;;15.30;99.90;;;;;;5072913;28;20040;-71
2023/10/05 09:29:48;;;;;;;16.60;4.40;;;15.30;99.90;;;;;;5072857;28;20036;-71
2023/10/05 09:32:36;;;;;;;20.98;5.07;;;15.20;99.90;;;;;;5072770;28;20403;-71
2023/10/05 09:35:04;;;;;;;20.67;4.32;;;15.30;99.90;;;;;;5072684;28;20045;-71
2023/10/05 09:37:33;;;;;;;13.23;3.70;;;15.30;99.90;;;;;;5072976;28;20110;-71
2023/10/05 09:40:00;;;;;;;17.23;4.20;;;15.30;99.90;;;;;;5073872;28;20086;-71
2023/10/05 09:42:27;;;;;;;17.25;3.88;;;15.20;99.90;;;;;;5072547;28;20082;-71
2023/10/05 09:44:58;;;;;;;19.17;4.68;;;15.40;99.90;;;;;;5072399;28;20055;-71
2023/10/05 09:47:32;;;;;;;18.20;4.22;;;15.40;99.90;;;;;;5072502;28;20041;-71
2023/10/05 09:50:13;;;;;;;18.02;3.78;;;15.40;99.90;;;;;;5072726;28;20044;-71
2023/10/05 09:52:43;;;;;;;15.35;3.95;;;15.40;99.90;;;;;;5072707;28;20119;-71
2023/10/05 09:55:19;;;;;;;23.13;4.28;;;15.50;99.90;;;;;;5072284;28;20119;-71
2023/10/05 09:57:51;;;;;;;16.48;3.38;;;15.50;99.90;;;;;;5072355;28;20063;-71
2023/10/05 10:00:47;;;;;;;18.38;4.07;;;15.40;99.90;;;;;;5072531;28;20051;-71
2023/10/05 10:03:17;;;;;;;20.13;4.03;;;15.40;99.90;;;;;;5055642;28;20051;-71
2023/10/05 10:05:48;;;;;;;17.77;3.63;;;15.50;99.90;;;;;;5072080;28;20036;-72
2023/10/05 10:08:29;;;;;;;16.27;4.55;;;15.50;99.90;;;;;;5055455;28;20096;-74
2023/10/05 10:11:02;;;;;;;17.42;4.18;;;15.50;99.90;;;;;;5072412;28;20044;-72
2023/10/05 10:13:37;;;;;;;18.35;3.88;;;15.50;99.90;;;;;;5072452;28;20135;-72
2023/10/05 10:16:26;;;;;;;15.20;4.05;;;15.50;99.90;;;;;;5072178;28;20040;-71
2023/10/05 10:18:53;;;;;;;17.30;3.45;;;15.50;99.90;;;;;;5071980;28;20038;-71
2023/10/05 10:21:35;;;;;;;23.58;4.18;;;15.50;99.90;;;;;;5072000;28;20047;-71
2023/10/05 10:24:06;;;;;;;16.83;4.10;;;15.40;99.90;;;;;;5072102;28;20489;-71
2023/10/05 10:26:39;;;;;;;24.00;5.07;;;15.40;99.90;;;;;;5071940;28;20032;-71
2023/10/05 10:29:11;;;;;;;29.75;5.50;;;15.40;99.90;;;;;;5071978;28;20037;-71
2023/10/05 10:31:47;;;;;;;16.90;4.10;;;15.40;99.90;;;;;;5071920;28;20037;-71
2023/10/05 10:34:43;;;;;;;18.33;4.80;;;15.40;99.90;;;;;;5071278;28;20067;-71
2023/10/05 10:37:10;;;;;;;14.65;3.78;;;15.40;99.90;;;;;;5071810;28;20055;-71
2023/10/05 10:39:37;;;;;;;14.05;3.65;;;15.30;99.90;;;;;;5071776;28;20520;-71
2023/10/05 10:42:07;;;;;;;16.92;4.05;;;15.40;99.90;;;;;;5071781;28;20044;-71
2023/10/05 10:47:14;;;;;;;15.10;3.53;;;15.60;99.90;;;;;;5072051;28;20045;-71
2023/10/05 10:49:40;;;;;;;14.48;3.75;;;15.80;99.90;;;;;;5071729;28;20040;-71
2023/10/05 10:52:09;;;;;;;12.20;3.22;;;15.90;99.90;;;;;;5071696;28;20047;-71
2023/10/05 10:54:41;;;;;;;13.88;3.28;;;15.90;99.90;;;;;;5071600;28;20405;-71
2023/10/05 10:57:08;;;;;;;14.57;3.63;;;15.90;99.90;;;;;;5072106;28;20138;-71
2023/10/05 10:59:41;;;;;;;15.25;3.50;;;16.00;99.90;;;;;;5071846;28;20052;-71
2023/10/05 11:02:13;;;;;;;12.27;2.90;;;16.10;99.90;;;;;;5071590;28;20051;-71
2023/10/05 11:04:39;;;;;;;11.77;2.65;;;16.30;99.90;;;;;;5071437;28;20044;-71
2023/10/05 11:07:05;;;;;;;13.82;3.00;;;16.80;99.90;;;;;;5071517;28;20045;-71
2023/10/05 11:09:36;;;;;;;10.52;2.42;;;17.30;99.90;;;;;;5071488;28;20097;-71
2023/10/05 11:12:10;;;;;;;9.27;2.40;;;17.50;99.90;;;;;;5071509;28;20079;-71
2023/10/05 11:14:42;;;;;;;10.80;2.38;;;17.80;99.90;;;;;;5071783;28;20189;-71
2023/10/05 11:17:34;;;;;;;10.75;3.00;;;17.90;99.90;;;;;;5054691;28;20413;-71
2023/10/05 11:20:12;;;;;;;11.80;2.70;;;17.90;99.90;;;;;;5071457;28;20493;-71
2023/10/05 11:22:42;;;;;;;12.77;3.38;;;17.70;99.90;;;;;;5071424;28;20412;-72
2023/10/05 11:25:14;;;;;;;12.27;2.80;;;17.60;99.90;;;;;;5071247;28;20052;-72
2023/10/05 11:27:56;;;;;;;8.90;2.95;;;17.60;99.90;;;;;;5054894;28;20036;-72
2023/10/05 11:30:45;;;;;;;11.07;2.72;;;17.80;99.90;;;;;;5055008;28;20089;-72
2023/10/05 11:33:17;;;;;;;10.43;2.42;;;18.20;99.90;;;;;;5054848;28;20032;-72
2023/10/05 11:35:53;;;;;;;10.57;2.42;;;18.70;99.90;;;;;;5071533;28;20040;-72
2023/10/05 11:38:21;;;;;;;11.20;2.85;;;19.30;99.90;;;;;;5054483;28;20382;-72
2023/10/05 11:40:50;;;;;;;11.88;3.20;;;19.90;99.90;;;;;;5071439;28;20093;-72
2023/10/05 11:43:18;;;;;;;12.20;3.25;;;20.10;99.90;;;;;;5071172;28;20040;-72
2023/10/05 11:46:17;;;;;;;10.45;2.80;;;20.10;99.90;;;;;;5073748;28;20044;-76
2023/10/05 11:48:48;;;;;;;10.48;3.08;;;19.70;99.90;;;;;;5074803;28;20497;-72
2023/10/05 11:51:16;;;;;;;13.82;2.60;;;19.80;99.90;;;;;;5058096;28;20036;-72
2023/10/05 11:53:43;;;;;;;12.05;3.08;;;20.00;99.90;;;;;;5074585;28;20044;-72
2023/10/05 11:56:09;;;;;;;11.98;2.83;;;20.30;99.90;;;;;;5074657;28;20055;-72
2023/10/05 11:58:41;;;;;;;14.55;3.33;;;20.50;99.90;;;;;;5074590;28;20048;-72
2023/10/05 12:01:07;;;;;;;7.63;2.47;;;20.70;99.90;;;;;;5074818;28;20063;-71
2023/10/05 12:03:33;;;;;;;10.35;2.40;;;21.00;99.90;;;;;;5074450;28;20117;-71
2023/10/05 12:06:00;;;;;;;11.32;2.70;;;21.30;99.90;;;;;;5074336;28;20078;-72
2023/10/05 12:08:30;;;;;;;13.23;3.20;;;21.40;99.90;;;;;;5074398;28;20439;-72
2023/10/05 12:10:59;;;;;;;13.90;2.50;;;21.70;99.90;;;;;;5074415;28;20115;-73
2023/10/05 12:13:29;;;;;;;10.13;2.60;;;21.60;99.90;;;;;;5074302;28;20041;-73
2023/10/05 12:15:55;;;;;;;13.73;3.28;;;21.70;99.90;;;;;;5074474;28;20036;-72
2023/10/05 12:18:22;;;;;;;10.73;2.70;;;21.80;99.90;;;;;;5057392;28;20044;-72
2023/10/05 12:20:50;;;;;;;9.85;2.15;;;21.80;99.90;;;;;;5074460;28;20140;-72
2023/10/05 12:23:17;;;;;;;8.68;2.45;;;22.00;99.90;;;;;;5074458;28;20056;-72
2023/10/05 12:25:46;;;;;;;11.02;2.72;;;22.20;99.90;;;;;;5074023;28;20492;-72
2023/10/05 12:28:12;;;;;;;10.75;3.10;;;22.30;99.90;;;;;;5074046;28;20040;-72
2023/10/05 12:30:45;;;;;;;8.05;2.10;;;22.10;99.90;;;;;;5074045;28;20070;-72
2023/10/05 12:33:11;;;;;;;13.00;2.83;;;21.70;99.90;;;;;;5074014;28;20049;-72
2023/10/05 12:35:38;;;;;;;9.93;2.42;;;21.40;99.90;;;;;;5073892;28;20043;-72
2023/10/05 12:38:06;;;;;;;11.10;2.70;;;21.20;99.90;;;;;;5073958;28;20045;-73
2023/10/05 12:40:41;;;;;;;12.77;2.30;;;20.90;99.90;;;;;;5074065;28;20052;-72
2023/10/05 12:43:09;;;;;;;10.57;2.63;;;20.70;99.90;;;;;;5073764;28;20072;-72
2023/10/05 12:45:35;;;;;;;10.48;2.20;;;20.50;99.90;;;;;;5073589;28;20440;-72
2023/10/05 12:48:04;;;;;;;14.80;2.53;;;20.50;99.90;;;;;;5073918;28;20497;-72
2023/10/05 12:50:30;;;;;;;10.82;2.33;;;20.70;99.90;;;;;;5073631;28;20111;-72
2023/10/05 12:52:58;;;;;;;11.88;2.58;;;20.80;99.90;;;;;;5073590;28;20067;-72
2023/10/05 12:55:26;;;;;;;11.15;2.38;;;20.90;99.90;;;;;;5073712;28;20052;-72
2023/10/05 12:57:53;;;;;;;8.80;2.20;;;21.00;99.90;;;;;;5072980;28;20090;-72
2023/10/05 13:00:22;;;;;;;11.15;2.38;;;21.20;99.90;;;;;;5073443;28;20096;-72
2023/10/05 13:02:52;;;;;;;7.25;1.95;;;21.30;99.90;;;;;;5073641;28;20097;-72
2023/10/05 13:05:20;;;;;;;10.77;2.53;;;21.40;99.90;;;;;;5073498;28;20040;-72
2023/10/05 13:07:50;;;;;;;14.35;2.30;;;21.60;99.90;;;;;;5073293;28;20390;-72
2023/10/05 13:10:26;;;;;;;9.68;1.95;;;21.70;99.90;;;;;;5073256;28;20055;-72